Time;durP1;ratioP1;P1;durP2;ratioP2;P2;SDS_P1;SDS_P2;PMS_P1;PMS_P2;Temp;Humidity;BMP_temperature;BMP_pressure;BME280_temperature;BME280_humidity;BME280_pressure;Samples;Min_cycle;Max_cycle;Signal;HPM_P1;HPM_P2
2024/04/04 00:01:13;;;;;;;;;;;;;;;9.95;78.28;100688.42;106794;1275;25213;-52
2024/04/04 00:03:39;;;;;;;;;;;;;;;9.95;78.30;100688.23;106884;1275;22658;-52
2024/04/04 00:06:06;;;;;;;;;;;;;;;9.96;78.33;100685.16;106942;1274;23017;-53
2024/04/04 00:08:33;;;;;;;;;;;;;;;9.96;78.00;100679.17;106955;1275;24197;-52
2024/04/04 00:11:14;;;;;;;;;;;;;;;9.94;77.93;100672.56;106856;1269;24244;-51
2024/04/04 00:13:40;;;;;;;;;;;;;;;9.92;78.02;100671.42;106823;1275;22449;-50
2024/04/04 00:16:07;;;;;;;;;;;;;;;9.90;77.79;100676.32;106830;1274;23217;-52
2024/04/04 00:18:33;;;;;;;;;;;;;;;9.86;77.81;100676.73;106855;1274;22738;-51
2024/04/04 00:21:00;;;;;;;;;;;;;;;9.83;77.83;100673.35;106795;1275;24285;-52
2024/04/04 00:23:26;;;;;;;;;;;;;;;9.79;77.79;100677.13;106841;1275;24166;-49
2024/04/04 00:25:53;;;;;;;;;;;;;;;9.75;77.84;100671.89;106823;1275;24192;-53
2024/04/04 00:28:19;;;;;;;;;;;;;;;9.70;77.96;100669.35;106800;1275;22506;-52
2024/04/04 00:30:49;;;;;;;;;;;;;;;9.65;77.88;100665.52;106833;1275;25416;-50
2024/04/04 00:33:15;;;;;;;;;;;;;;;9.61;78.04;100664.20;106859;1274;22579;-51
2024/04/04 00:35:42;;;;;;;;;;;;;;;9.55;77.97;100660.61;106834;1267;22446;-50
2024/04/04 00:38:08;;;;;;;;;;;;;;;9.50;78.15;100651.54;106840;1274;22444;-51
2024/04/04 00:40:35;;;;;;;;;;;;;;;9.46;78.23;100646.80;106830;1275;24225;-49
2024/04/04 00:43:02;;;;;;;;;;;;;;;9.41;78.32;100652.72;106940;1274;22511;-51
2024/04/04 00:45:29;;;;;;;;;;;;;;;9.38;78.40;100648.48;106846;1274;25332;-50
2024/04/04 00:47:58;;;;;;;;;;;;;;;9.34;78.55;100646.96;106906;1274;22517;-54
2024/04/04 00:50:25;;;;;;;;;;;;;;;9.30;78.79;100647.21;107030;1274;22427;-51
2024/04/04 00:52:54;;;;;;;;;;;;;;;9.26;78.87;100644.92;106877;1274;24247;-48
2024/04/04 00:55:20;;;;;;;;;;;;;;;9.20;79.08;100641.55;106860;1273;25165;-50
2024/04/04 00:57:47;;;;;;;;;;;;;;;9.15;79.32;100644.08;106890;1275;22445;-52
2024/04/04 01:00:17;;;;;;;;;;;;;;;9.11;79.47;100645.71;106875;1275;22771;-50
2024/04/04 01:02:43;;;;;;;;;;;;;;;9.06;79.69;100645.99;106978;1273;22630;-51
2024/04/04 01:05:10;;;;;;;;;;;;;;;9.02;79.92;100643.02;106891;1274;22937;-50
2024/04/04 01:07:37;;;;;;;;;;;;;;;9.00;80.12;100642.96;106831;1275;22514;-53
2024/04/04 01:10:07;;;;;;;;;;;;;;;8.97;80.41;100642.02;106786;1275;22625;-50
2024/04/04 01:12:33;;;;;;;;;;;;;;;8.96;80.51;100641.38;106913;1275;22441;-51
2024/04/04 01:15:00;;;;;;;;;;;;;;;8.97;80.66;100638.19;106822;1275;25381;-50
2024/04/04 01:17:27;;;;;;;;;;;;;;;8.97;80.93;100635.70;106797;1275;22760;-53
2024/04/04 01:19:55;;;;;;;;;;;;;;;8.98;81.17;100630.73;106857;1275;22513;-52
2024/04/04 01:22:22;;;;;;;;;;;;;;;8.99;81.49;100623.41;106907;1275;22610;-53
2024/04/04 01:24:49;;;;;;;;;;;;;;;8.99;81.61;100629.77;106981;1273;22576;-54
2024/04/04 01:27:16;;;;;;;;;;;;;;;8.98;81.79;100621.75;106799;1275;24229;-51
2024/04/04 01:29:43;;;;;;;;;;;;;;;8.98;82.15;100622.98;106917;1275;25930;-53
2024/04/04 01:32:10;;;;;;;;;;;;;;;8.98;82.37;100620.35;106963;1275;23874;-54
2024/04/04 01:34:36;;;;;;;;;;;;;;;8.98;82.94;100625.45;106741;1275;22871;-53
2024/04/04 01:37:03;;;;;;;;;;;;;;;8.96;83.76;100623.41;106927;1275;25381;-50
2024/04/04 01:39:29;;;;;;;;;;;;;;;8.94;84.73;100619.64;106821;1275;24199;-54
2024/04/04 01:41:56;;;;;;;;;;;;;;;8.92;85.28;100617.83;106751;1275;25282;-54
2024/04/04 01:44:22;;;;;;;;;;;;;;;8.91;85.82;100617.73;106854;1275;22460;-49
2024/04/04 01:46:52;;;;;;;;;;;;;;;8.91;86.36;100612.09;106820;1275;22508;-50
2024/04/04 01:49:21;;;;;;;;;;;;;;;8.91;86.91;100609.09;106830;1275;25950;-52
2024/04/04 01:51:48;;;;;;;;;;;;;;;8.92;87.38;100608.63;106838;1275;22556;-50
2024/04/04 01:54:16;;;;;;;;;;;;;;;8.95;87.73;100608.11;107028;1275;25408;-54
2024/04/04 01:56:42;;;;;;;;;;;;;;;8.99;87.99;100599.45;106910;1275;24366;-52
2024/04/04 01:59:12;;;;;;;;;;;;;;;9.03;88.12;100591.66;106795;1275;25862;-52
2024/04/04 02:01:38;;;;;;;;;;;;;;;9.09;88.22;100586.80;106779;1275;22429;-53
2024/04/04 02:04:05;;;;;;;;;;;;;;;9.13;88.38;100587.77;106661;1275;304737;-53
2024/04/04 02:06:32;;;;;;;;;;;;;;;9.17;88.45;100587.54;106903;1267;22599;-54
2024/04/04 02:08:58;;;;;;;;;;;;;;;9.21;88.49;100585.41;106825;1275;24254;-51
2024/04/04 02:11:25;;;;;;;;;;;;;;;9.24;88.54;100583.13;106798;1275;22795;-52
2024/04/04 02:13:51;;;;;;;;;;;;;;;9.26;88.52;100583.21;106841;1269;24176;-53
2024/04/04 02:16:18;;;;;;;;;;;;;;;9.25;88.38;100576.00;106853;1272;22595;-52
2024/04/04 02:18:45;;;;;;;;;;;;;;;9.24;88.43;100575.73;106783;1273;22566;-52
2024/04/04 02:21:11;;;;;;;;;;;;;;;9.24;88.58;100572.56;106856;1267;25909;-54
2024/04/04 02:23:38;;;;;;;;;;;;;;;9.27;88.52;100563.79;106844;1269;23012;-54
2024/04/04 02:26:05;;;;;;;;;;;;;;;9.27;88.44;100560.62;106848;1269;22492;-51
2024/04/04 02:28:31;;;;;;;;;;;;;;;9.27;88.60;100558.82;106855;1275;24236;-51
2024/04/04 02:30:58;;;;;;;;;;;;;;;9.28;88.57;100553.15;106889;1267;24060;-52
2024/04/04 02:33:24;;;;;;;;;;;;;;;9.27;88.74;100548.60;106919;1267;22487;-51
2024/04/04 02:35:52;;;;;;;;;;;;;;;9.25;88.74;100541.83;106889;1269;22494;-53
2024/04/04 02:38:19;;;;;;;;;;;;;;;9.23;88.84;100539.10;106826;1268;24402;-54
2024/04/04 02:40:45;;;;;;;;;;;;;;;9.20;88.71;100532.38;106839;1267;24227;-54
2024/04/04 02:43:12;;;;;;;;;;;;;;;9.18;88.81;100528.77;106815;1274;22490;-54
2024/04/04 02:45:38;;;;;;;;;;;;;;;9.19;88.75;100527.52;106836;1267;22438;-54
2024/04/04 02:48:05;;;;;;;;;;;;;;;9.19;88.76;100523.13;106987;1272;25369;-54
2024/04/04 02:50:32;;;;;;;;;;;;;;;9.18;88.67;100515.03;107021;1267;22914;-54
2024/04/04 02:52:58;;;;;;;;;;;;;;;9.17;88.67;100509.48;106929;1270;23881;-54
2024/04/04 02:55:27;;;;;;;;;;;;;;;9.17;88.59;100509.84;107048;1269;22536;-52
2024/04/04 02:57:54;;;;;;;;;;;;;;;9.14;88.51;100502.95;106970;1274;22458;-50
2024/04/04 03:00:20;;;;;;;;;;;;;;;9.11;88.51;100501.36;106878;1268;24207;-51
2024/04/04 03:02:47;;;;;;;;;;;;;;;9.10;88.56;100500.71;106818;1274;22772;-51
2024/04/04 03:05:14;;;;;;;;;;;;;;;9.08;88.78;100495.73;106849;1274;22424;-50
2024/04/04 03:07:40;;;;;;;;;;;;;;;9.03;88.86;100491.52;106870;1275;22512;-50
2024/04/04 03:10:08;;;;;;;;;;;;;;;9.01;88.97;100484.27;106878;1271;22426;-54
2024/04/04 03:12:34;;;;;;;;;;;;;;;8.99;89.21;100471.86;106964;1272;22642;-53
2024/04/04 03:15:01;;;;;;;;;;;;;;;8.96;89.46;100467.63;107127;1274;22504;-53
2024/04/04 03:17:27;;;;;;;;;;;;;;;8.95;89.61;100468.56;106946;1274;22652;-51
2024/04/04 03:19:54;;;;;;;;;;;;;;;8.94;89.87;100466.50;106964;1274;22659;-53
2024/04/04 03:22:21;;;;;;;;;;;;;;;8.94;90.00;100459.64;107052;1274;22622;-52
2024/04/04 03:24:47;;;;;;;;;;;;;;;8.94;90.21;100458.39;106882;1274;25220;-50
2024/04/04 03:27:14;;;;;;;;;;;;;;;8.96;90.48;100451.06;106856;1274;22507;-54
2024/04/04 03:29:41;;;;;;;;;;;;;;;8.98;90.64;100449.56;106884;1275;22653;-52
2024/04/04 03:32:10;;;;;;;;;;;;;;;9.00;90.98;100443.98;106850;1274;25878;-53
2024/04/04 03:34:36;;;;;;;;;;;;;;;9.02;91.16;100443.86;106870;1272;22432;-50
2024/04/04 03:37:03;;;;;;;;;;;;;;;9.03;91.27;100443.95;106895;1275;22499;-53
2024/04/04 03:39:32;;;;;;;;;;;;;;;9.05;91.41;100437.69;106935;1275;25402;-49
2024/04/04 03:41:59;;;;;;;;;;;;;;;9.08;91.61;100433.67;106824;1274;22638;-53
2024/04/04 03:44:28;;;;;;;;;;;;;;;9.07;91.93;100428.96;106879;1274;22495;-54
2024/04/04 03:46:58;;;;;;;;;;;;;;;9.07;92.08;100423.31;106888;1274;25319;-54
2024/04/04 03:49:24;;;;;;;;;;;;;;;9.07;92.21;100417.70;106930;1274;22469;-49
2024/04/04 03:51:51;;;;;;;;;;;;;;;9.07;92.30;100421.39;106862;1275;24369;-50
2024/04/04 03:54:17;;;;;;;;;;;;;;;9.08;92.56;100413.54;106882;1274;25875;-51
2024/04/04 03:56:44;;;;;;;;;;;;;;;9.09;92.77;100413.67;106856;1274;22441;-53
2024/04/04 03:59:23;;;;;;;;;;;;;;;9.10;93.17;100400.26;106894;1274;22438;-53
2024/04/04 04:01:50;;;;;;;;;;;;;;;9.09;93.61;100393.08;106943;1274;22890;-52
2024/04/04 04:04:17;;;;;;;;;;;;;;;9.08;94.12;100386.95;106877;1274;22947;-51
2024/04/04 04:06:44;;;;;;;;;;;;;;;9.08;94.47;100377.45;106833;1272;22632;-53
2024/04/04 04:09:11;;;;;;;;;;;;;;;9.07;94.85;100371.52;106821;1275;25204;-54
2024/04/04 04:11:37;;;;;;;;;;;;;;;9.07;95.11;100367.13;106876;1267;22506;-53
2024/04/04 04:14:04;;;;;;;;;;;;;;;9.08;95.42;100367.06;106871;1268;22495;-53
2024/04/04 04:16:31;;;;;;;;;;;;;;;9.10;95.70;100360.60;106923;1274;23872;-54
2024/04/04 04:18:57;;;;;;;;;;;;;;;9.13;95.90;100359.00;106850;1274;22604;-54
2024/04/04 04:21:24;;;;;;;;;;;;;;;9.14;96.19;100353.48;106866;1274;24355;-53
2024/04/04 04:23:51;;;;;;;;;;;;;;;9.14;96.32;100353.83;106902;1274;24406;-54
2024/04/04 04:26:18;;;;;;;;;;;;;;;9.16;96.42;100349.09;107420;1274;22447;-53
2024/04/04 04:28:45;;;;;;;;;;;;;;;9.17;96.67;100346.77;107000;1275;25347;-50
2024/04/04 04:31:21;;;;;;;;;;;;;;;9.17;96.74;100348.55;106868;1274;25344;-52
2024/04/04 04:33:48;;;;;;;;;;;;;;;9.17;97.25;100345.02;106891;1274;22442;-51
2024/04/04 04:36:14;;;;;;;;;;;;;;;9.18;97.40;100336.51;106829;1274;25258;-50
2024/04/04 04:38:41;;;;;;;;;;;;;;;9.19;97.66;100335.33;106871;1274;22676;-53
2024/04/04 04:41:08;;;;;;;;;;;;;;;9.21;98.02;100333.64;106836;1274;22523;-53
2024/04/04 04:43:34;;;;;;;;;;;;;;;9.23;98.58;100328.92;106846;1274;22582;-52
2024/04/04 04:46:01;;;;;;;;;;;;;;;9.27;98.79;100323.11;106860;1274;23916;-50
2024/04/04 04:48:28;;;;;;;;;;;;;;;9.29;99.02;100322.25;106848;1274;22682;-50
2024/04/04 04:50:54;;;;;;;;;;;;;;;9.33;99.29;100318.17;106988;1269;25243;-52
2024/04/04 04:53:21;;;;;;;;;;;;;;;9.38;99.69;100316.27;106990;1274;22625;-52
2024/04/04 04:55:48;;;;;;;;;;;;;;;9.44;99.78;100315.52;106910;1274;22674;-52
2024/04/04 04:58:14;;;;;;;;;;;;;;;9.49;99.71;100307.83;107111;1274;22426;-50
2024/04/04 05:00:41;;;;;;;;;;;;;;;9.52;99.87;100310.33;107017;1275;22492;-50
2024/04/04 05:03:08;;;;;;;;;;;;;;;9.53;100.00;100298.77;106923;1274;22679;-50
2024/04/04 05:05:37;;;;;;;;;;;;;;;9.55;100.00;100291.23;106878;1274;24169;-53
2024/04/04 05:08:04;;;;;;;;;;;;;;;9.58;100.00;100298.78;106929;1274;24536;-50
2024/04/04 05:10:30;;;;;;;;;;;;;;;9.62;100.00;100303.14;107102;1274;22493;-52
2024/04/04 05:12:57;;;;;;;;;;;;;;;9.66;100.00;100293.38;106944;1272;22973;-50
2024/04/04 05:15:23;;;;;;;;;;;;;;;9.71;100.00;100290.14;106898;1271;22513;-52
2024/04/04 05:17:50;;;;;;;;;;;;;;;9.76;100.00;100284.89;107004;1274;24174;-50
2024/04/04 05:20:19;;;;;;;;;;;;;;;9.79;100.00;100282.54;107053;1274;25367;-54
2024/04/04 05:22:46;;;;;;;;;;;;;;;9.81;100.00;100283.11;106848;1274;22565;-54
2024/04/04 05:25:16;;;;;;;;;;;;;;;9.84;100.00;100269.17;106943;1274;25146;-53
2024/04/04 05:27:43;;;;;;;;;;;;;;;9.88;100.00;100269.11;107062;1275;24102;-53
2024/04/04 05:30:16;;;;;;;;;;;;;;;9.91;100.00;100269.80;106913;1273;24037;-54
2024/04/04 05:32:43;;;;;;;;;;;;;;;9.96;100.00;100267.73;106871;1274;22548;-54
2024/04/04 05:35:09;;;;;;;;;;;;;;;9.99;100.00;100261.70;106889;1274;25371;-54
2024/04/04 05:37:36;;;;;;;;;;;;;;;10.04;100.00;100258.57;106871;1274;24164;-54
2024/04/04 05:40:03;;;;;;;;;;;;;;;10.09;100.00;100264.11;107000;1274;23913;-51
2024/04/04 05:42:32;;;;;;;;;;;;;;;10.15;100.00;100265.13;106976;1275;22437;-51
2024/04/04 05:44:59;;;;;;;;;;;;;;;10.19;100.00;100263.97;107035;1274;22523;-54
2024/04/04 05:47:26;;;;;;;;;;;;;;;10.22;100.00;100260.94;106907;1275;22432;-49
2024/04/04 05:49:53;;;;;;;;;;;;;;;10.26;100.00;100257.30;106977;1272;24342;-50
2024/04/04 05:52:20;;;;;;;;;;;;;;;10.31;100.00;100253.31;107000;1275;22509;-53
2024/04/04 05:54:47;;;;;;;;;;;;;;;10.35;100.00;100248.34;107023;1274;22440;-53
2024/04/04 05:57:15;;;;;;;;;;;;;;;10.38;100.00;100244.04;107070;1274;25276;-54
2024/04/04 05:59:42;;;;;;;;;;;;;;;10.42;100.00;100240.46;106917;1271;25398;-52
2024/04/04 06:02:11;;;;;;;;;;;;;;;10.45;100.00;100234.40;106863;1274;22491;-51
2024/04/04 06:04:39;;;;;;;;;;;;;;;10.48;100.00;100234.56;106846;1274;23861;-51
2024/04/04 06:07:14;;;;;;;;;;;;;;;10.52;100.00;100232.06;106857;1274;22533;-53
2024/04/04 06:09:41;;;;;;;;;;;;;;;10.56;100.00;100233.39;107018;1275;22518;-54
2024/04/04 06:12:07;;;;;;;;;;;;;;;10.59;100.00;100227.14;107009;1274;25444;-51
2024/04/04 06:14:34;;;;;;;;;;;;;;;10.62;100.00;100226.22;106896;1274;24132;-53
2024/04/04 06:17:01;;;;;;;;;;;;;;;10.64;100.00;100220.25;106889;1274;24379;-53
2024/04/04 06:19:30;;;;;;;;;;;;;;;10.66;100.00;100222.42;106875;1274;22452;-54
2024/04/04 06:21:59;;;;;;;;;;;;;;;10.67;100.00;100216.69;106859;1275;25845;-50
2024/04/04 06:24:26;;;;;;;;;;;;;;;10.69;100.00;100220.97;106879;1274;23889;-53
2024/04/04 06:26:52;;;;;;;;;;;;;;;10.72;100.00;100216.39;106772;1274;22632;-53
2024/04/04 06:29:21;;;;;;;;;;;;;;;10.75;100.00;100217.05;106864;1274;25316;-53
2024/04/04 06:31:49;;;;;;;;;;;;;;;10.80;100.00;100219.38;107021;1274;25189;-52
2024/04/04 06:34:19;;;;;;;;;;;;;;;10.83;100.00;100212.84;107093;1274;24203;-54
2024/04/04 06:36:45;;;;;;;;;;;;;;;10.84;100.00;100211.67;107017;1273;26022;-54
2024/04/04 06:39:15;;;;;;;;;;;;;;;10.87;100.00;100204.59;107013;1275;24207;-52
2024/04/04 06:41:45;;;;;;;;;;;;;;;10.89;100.00;100204.62;107061;1274;22463;-54
2024/04/04 06:44:14;;;;;;;;;;;;;;;10.90;100.00;100201.02;106872;1275;22441;-51
2024/04/04 06:46:41;;;;;;;;;;;;;;;10.92;100.00;100208.33;106864;1275;22557;-50
2024/04/04 06:49:09;;;;;;;;;;;;;;;10.94;100.00;100209.97;107034;1275;25358;-47
2024/04/04 06:51:36;;;;;;;;;;;;;;;10.96;100.00;100213.55;106802;1275;25342;-47
2024/04/04 06:54:05;;;;;;;;;;;;;;;10.98;100.00;100210.03;106815;1275;22418;-45
2024/04/04 06:56:31;;;;;;;;;;;;;;;10.99;100.00;100210.29;106908;1275;22512;-46
2024/04/04 06:58:59;;;;;;;;;;;;;;;11.00;100.00;100209.89;106892;1275;25186;-46
2024/04/04 07:01:29;;;;;;;;;;;;;;;11.02;100.00;100210.98;106763;1275;25384;-46
2024/04/04 07:03:56;;;;;;;;;;;;;;;11.05;100.00;100209.52;107135;1267;22507;-46
2024/04/04 07:06:24;;;;;;;;;;;;;;;11.07;100.00;100208.14;107072;1268;22649;-46
2024/04/04 07:08:51;;;;;;;;;;;;;;;11.10;100.00;100209.21;107039;1271;22516;-44
2024/04/04 07:11:18;;;;;;;;;;;;;;;11.14;100.00;100207.40;107107;1268;22493;-43
2024/04/04 07:13:45;;;;;;;;;;;;;;;11.16;100.00;100206.84;106880;1274;25226;-47
2024/04/04 07:16:12;;;;;;;;;;;;;;;11.19;100.00;100206.30;106860;1274;25348;-46
2024/04/04 07:18:39;;;;;;;;;;;;;;;11.22;100.00;100206.98;106864;1268;25289;-45
2024/04/04 07:21:06;;;;;;;;;;;;;;;11.24;100.00;100209.11;106832;1267;25204;-44
2024/04/04 07:23:33;;;;;;;;;;;;;;;11.27;100.00;100206.83;106908;1275;25190;-46
2024/04/04 07:26:00;;;;;;;;;;;;;;;11.28;100.00;100207.80;106889;1274;24154;-46
2024/04/04 07:28:28;;;;;;;;;;;;;;;11.30;100.00;100207.67;106852;1274;24273;-45
2024/04/04 07:30:55;;;;;;;;;;;;;;;11.32;100.00;100208.02;106929;1275;25037;-44
2024/04/04 07:33:24;;;;;;;;;;;;;;;11.36;100.00;100206.42;106965;1275;22505;-46
2024/04/04 07:35:50;;;;;;;;;;;;;;;11.40;100.00;100204.86;106976;1275;22506;-45
2024/04/04 07:38:17;;;;;;;;;;;;;;;11.45;100.00;100205.02;106988;1275;24022;-47
2024/04/04 07:40:44;;;;;;;;;;;;;;;11.48;100.00;100206.38;106923;1268;25288;-46
2024/04/04 07:43:11;;;;;;;;;;;;;;;11.51;100.00;100207.08;106935;1274;22443;-45
2024/04/04 07:45:39;;;;;;;;;;;;;;;11.53;100.00;100210.27;106992;1274;22491;-46
2024/04/04 07:48:07;;;;;;;;;;;;;;;11.54;100.00;100208.14;107021;1275;22528;-47
2024/04/04 07:50:35;;;;;;;;;;;;;;;11.55;100.00;100198.49;107105;1268;25348;-46
2024/04/04 07:53:08;;;;;;;;;;;;;;;11.58;100.00;100193.89;107054;1274;22435;-46
2024/04/04 07:55:35;;;;;;;;;;;;;;;11.60;100.00;100201.16;106938;1269;22658;-48
2024/04/04 07:58:06;;;;;;;;;;;;;;;11.64;100.00;100201.05;106847;1256;25252;-46
2024/04/04 08:00:33;;;;;;;;;;;;;;;11.67;100.00;100204.17;106902;1274;24218;-46
2024/04/04 08:02:59;;;;;;;;;;;;;;;11.70;100.00;100212.09;106974;1262;22495;-45
2024/04/04 08:05:27;;;;;;;;;;;;;;;11.71;100.00;100203.01;106954;1275;22631;-49
2024/04/04 08:07:53;;;;;;;;;;;;;;;11.72;100.00;100207.70;107055;1253;22565;-49
2024/04/04 08:10:20;;;;;;;;;;;;;;;11.74;100.00;100212.89;107027;1274;22693;-50
2024/04/04 08:12:47;;;;;;;;;;;;;;;11.75;100.00;100218.83;107058;1271;24188;-50
2024/04/04 08:15:14;;;;;;;;;;;;;;;11.78;100.00;100223.61;107017;1267;22454;-46
2024/04/04 08:17:41;;;;;;;;;;;;;;;11.78;100.00;100229.41;106888;1268;22535;-45
2024/04/04 08:20:08;;;;;;;;;;;;;;;11.79;100.00;100227.95;107068;1268;22512;-49
2024/04/04 08:22:35;;;;;;;;;;;;;;;11.82;100.00;100231.77;107036;1267;22499;-45
2024/04/04 08:25:02;;;;;;;;;;;;;;;11.85;100.00;100228.40;106857;1267;22587;-46
2024/04/04 08:27:29;;;;;;;;;;;;;;;11.86;100.00;100227.09;106849;1263;24043;-46
2024/04/04 08:29:58;;;;;;;;;;;;;;;11.89;100.00;100233.64;106872;1262;22599;-46
2024/04/04 08:32:24;;;;;;;;;;;;;;;11.91;100.00;100241.06;106999;1268;25471;-45
2024/04/04 08:34:54;;;;;;;;;;;;;;;11.93;100.00;100239.70;106971;1269;22630;-47
2024/04/04 08:37:20;;;;;;;;;;;;;;;11.94;100.00;100239.80;106949;1274;22451;-46
2024/04/04 08:39:50;;;;;;;;;;;;;;;11.95;100.00;100240.09;106855;1268;23868;-46
2024/04/04 08:42:17;;;;;;;;;;;;;;;11.96;100.00;100241.67;106847;1259;22465;-46
2024/04/04 08:44:46;;;;;;;;;;;;;;;11.96;100.00;100247.14;106836;1275;25285;-46
2024/04/04 08:47:13;;;;;;;;;;;;;;;11.97;100.00;100247.61;107015;1267;24325;-45
2024/04/04 08:49:43;;;;;;;;;;;;;;;11.98;100.00;100248.58;106961;1267;22443;-46
2024/04/04 08:52:13;;;;;;;;;;;;;;;11.99;100.00;100247.63;106753;1275;24226;-45
2024/04/04 08:54:39;;;;;;;;;;;;;;;12.00;100.00;100246.30;106895;1263;24185;-49
2024/04/04 08:57:06;;;;;;;;;;;;;;;12.00;100.00;100250.16;106837;1268;22583;-50
2024/04/04 08:59:32;;;;;;;;;;;;;;;12.02;100.00;100252.89;106797;1269;22717;-50
2024/04/04 09:01:59;;;;;;;;;;;;;;;12.04;100.00;100257.33;106948;1271;22635;-49
2024/04/04 09:04:25;;;;;;;;;;;;;;;12.07;100.00;100258.70;106941;1268;23058;-50
2024/04/04 09:06:52;;;;;;;;;;;;;;;12.08;100.00;100256.48;106910;1260;25227;-50
2024/04/04 09:09:23;;;;;;;;;;;;;;;12.09;100.00;100260.51;106877;1268;25874;-50
2024/04/04 09:11:50;;;;;;;;;;;;;;;12.10;100.00;100263.25;106882;1268;24283;-49
2024/04/04 09:14:16;;;;;;;;;;;;;;;12.11;100.00;100266.78;106931;1271;22484;-49
2024/04/04 09:16:43;;;;;;;;;;;;;;;12.11;100.00;100265.86;106845;1252;22511;-50
2024/04/04 09:19:10;;;;;;;;;;;;;;;12.10;100.00;100261.48;106950;1268;24363;-51
2024/04/04 09:21:38;;;;;;;;;;;;;;;12.11;100.00;100265.15;106905;1275;24040;-51
2024/04/04 09:24:06;;;;;;;;;;;;;;;12.12;100.00;100268.78;107073;1274;25335;-49
2024/04/04 09:26:32;;;;;;;;;;;;;;;12.15;100.00;100267.73;107126;1275;22515;-46
2024/04/04 09:28:59;;;;;;;;;;;;;;;12.18;100.00;100271.77;107013;1271;25377;-45
2024/04/04 09:31:27;;;;;;;;;;;;;;;12.20;100.00;100274.59;106976;1274;23498;-48
2024/04/04 09:33:55;;;;;;;;;;;;;;;12.24;100.00;100273.94;106923;1274;22527;-47
2024/04/04 09:36:24;;;;;;;;;;;;;;;12.29;100.00;100275.00;107018;1274;24482;-45
2024/04/04 09:38:54;;;;;;;;;;;;;;;12.33;100.00;100281.97;107048;1275;24091;-45
2024/04/04 09:41:21;;;;;;;;;;;;;;;12.38;100.00;100285.86;106918;1275;25392;-46
2024/04/04 09:43:49;;;;;;;;;;;;;;;12.41;100.00;100283.34;106893;1275;23909;-46
2024/04/04 09:46:17;;;;;;;;;;;;;;;12.45;100.00;100286.08;106977;1275;22499;-44
2024/04/04 09:48:45;;;;;;;;;;;;;;;12.48;100.00;100284.24;106784;1275;24197;-48
2024/04/04 09:51:14;;;;;;;;;;;;;;;12.50;100.00;100284.83;106851;1271;24235;-46
2024/04/04 09:53:43;;;;;;;;;;;;;;;12.52;100.00;100287.86;106890;1269;25392;-48
2024/04/04 09:56:10;;;;;;;;;;;;;;;12.53;100.00;100287.80;106921;1275;22464;-49
2024/04/04 09:58:37;;;;;;;;;;;;;;;12.53;100.00;100288.48;107147;1269;22463;-46
2024/04/04 10:01:20;;;;;;;;;;;;;;;12.55;100.00;100291.02;107024;1275;24235;-45
2024/04/04 10:03:47;;;;;;;;;;;;;;;12.59;100.00;100281.91;106842;1269;25273;-45
2024/04/04 10:06:35;;;;;;;;;;;;;;;12.61;100.00;100272.33;106813;1268;24257;-45
2024/04/04 10:09:24;;;;;;;;;;;;;;;12.65;100.00;100283.88;106862;1269;24196;-47
2024/04/04 10:11:53;;;;;;;;;;;;;;;12.68;100.00;100286.30;106883;1251;22499;-44
2024/04/04 10:14:21;;;;;;;;;;;;;;;12.70;100.00;100299.29;107074;1271;22587;-47
2024/04/04 10:16:53;;;;;;;;;;;;;;;12.72;99.95;100308.92;106973;1268;22544;-46
2024/04/04 10:19:23;;;;;;;;;;;;;;;12.70;99.56;100313.30;107116;1268;24179;-45
2024/04/04 10:21:50;;;;;;;;;;;;;;;12.67;99.22;100311.73;106912;1274;22504;-46
2024/04/04 10:24:21;;;;;;;;;;;;;;;12.64;98.59;100316.09;106892;1267;24122;-52
2024/04/04 10:27:08;;;;;;;;;;;;;;;12.59;98.07;100319.81;106838;1275;22707;-44
2024/04/04 10:29:34;;;;;;;;;;;;;;;12.53;97.37;100323.60;106811;1271;22499;-46
2024/04/04 10:32:09;;;;;;;;;;;;;;;12.51;97.44;100327.48;106869;1267;25527;-44
2024/04/04 10:34:36;;;;;;;;;;;;;;;12.58;98.28;100330.88;107038;1271;25143;-45
2024/04/04 10:37:03;;;;;;;;;;;;;;;12.69;98.85;100332.57;107070;1271;22655;-45
2024/04/04 10:39:29;;;;;;;;;;;;;;;12.80;99.06;100328.02;106876;1268;22456;-49
2024/04/04 10:41:57;;;;;;;;;;;;;;;12.93;99.42;100334.67;106876;1271;22459;-54
2024/04/04 10:44:26;;;;;;;;;;;;;;;13.07;99.14;100327.08;106983;1267;23518;-52
2024/04/04 10:46:53;;;;;;;;;;;;;;;13.20;98.81;100326.46;106973;1269;22443;-52
2024/04/04 10:49:24;;;;;;;;;;;;;;;13.31;98.54;100326.88;106862;1269;22438;-52
2024/04/04 10:52:10;;;;;;;;;;;;;;;13.42;97.75;100328.38;106987;1274;24209;-50
2024/04/04 10:54:38;;;;;;;;;;;;;;;13.52;96.81;100320.32;106851;1275;22546;-50
2024/04/04 10:57:05;;;;;;;;;;;;;;;13.58;95.82;100326.38;106906;1275;22439;-54
2024/04/04 10:59:32;;;;;;;;;;;;;;;13.68;95.16;100319.27;106953;1271;22505;-49
2024/04/04 11:02:02;;;;;;;;;;;;;;;13.76;94.04;100319.69;106913;1275;22618;-53
2024/04/04 11:04:29;;;;;;;;;;;;;;;13.88;94.32;100316.45;106870;1274;25276;-53
2024/04/04 11:06:57;;;;;;;;;;;;;;;14.06;94.49;100320.02;106946;1267;22677;-53
2024/04/04 11:09:25;;;;;;;;;;;;;;;14.20;92.62;100324.39;106917;1275;24249;-53
2024/04/04 11:11:53;;;;;;;;;;;;;;;14.31;91.62;100321.02;107005;1271;25213;-53
2024/04/04 11:14:21;;;;;;;;;;;;;;;14.43;90.81;100323.10;107103;1268;22613;-52
2024/04/04 11:16:51;;;;;;;;;;;;;;;14.57;89.45;100320.73;107107;1271;23172;-54
2024/04/04 11:19:20;;;;;;;;;;;;;;;14.74;87.77;100322.77;107015;1268;22752;-52
2024/04/04 11:21:47;;;;;;;;;;;;;;;14.86;86.31;100329.99;107079;1267;25266;-53
2024/04/04 11:24:14;;;;;;;;;;;;;;;14.95;85.32;100327.09;107117;1275;22495;-52
2024/04/04 11:26:41;;;;;;;;;;;;;;;15.07;83.02;100330.55;106917;1268;24222;-52
2024/04/04 11:29:08;;;;;;;;;;;;;;;15.20;81.10;100331.89;106844;1268;24392;-53
2024/04/04 11:31:35;;;;;;;;;;;;;;;15.32;80.28;100340.34;106845;1271;22735;-50
2024/04/04 11:34:02;;;;;;;;;;;;;;;15.37;78.33;100341.19;107123;1271;25393;-52
2024/04/04 11:36:30;;;;;;;;;;;;;;;15.37;76.83;100340.80;107017;1269;25406;-53
2024/04/04 11:38:56;;;;;;;;;;;;;;;15.37;75.83;100342.21;106866;1268;22934;-52
2024/04/04 11:41:24;;;;;;;;;;;;;;;15.45;75.57;100346.36;106844;1271;22498;-54
2024/04/04 11:43:50;;;;;;;;;;;;;;;15.55;74.04;100352.28;106957;1269;22743;-51
2024/04/04 11:46:18;;;;;;;;;;;;;;;15.64;73.74;100352.03;106971;1268;25410;-51
2024/04/04 11:48:47;;;;;;;;;;;;;;;15.71;73.68;100355.77;106935;1269;22570;-52
2024/04/04 11:51:14;;;;;;;;;;;;;;;15.75;72.22;100358.40;106845;1275;23861;-52
2024/04/04 11:53:40;;;;;;;;;;;;;;;15.85;72.89;100359.22;106822;1269;22641;-53
2024/04/04 11:56:07;;;;;;;;;;;;;;;15.95;72.35;100364.61;106838;1269;24571;-52
2024/04/04 11:58:35;;;;;;;;;;;;;;;16.04;72.57;100366.85;106845;1272;22968;-54
2024/04/04 12:01:03;;;;;;;;;;;;;;;16.12;72.33;100374.15;107065;1275;22454;-52
2024/04/04 12:03:29;;;;;;;;;;;;;;;16.18;71.08;100385.21;106945;1274;22451;-55
2024/04/04 12:05:56;;;;;;;;;;;;;;;16.21;69.26;100388.02;106848;1270;24354;-54
2024/04/04 12:08:24;;;;;;;;;;;;;;;16.21;68.69;100388.14;107014;1260;22495;-53
2024/04/04 12:10:55;;;;;;;;;;;;;;;16.23;68.53;100396.00;106885;1274;22872;-55
2024/04/04 12:13:22;;;;;;;;;;;;;;;16.23;68.05;100394.71;106838;1271;22428;-53
2024/04/04 12:15:51;;;;;;;;;;;;;;;16.32;68.00;100392.17;106878;1269;22491;-53
2024/04/04 12:21:03;;;;;;;;;;;;;;;16.61;67.78;100392.46;106838;1275;22512;-54
2024/04/04 12:23:32;;;;;;;;;;;;;;;16.80;68.17;100394.92;106854;1274;25086;-54
2024/04/04 12:26:00;;;;;;;;;;;;;;;16.99;67.76;100393.92;106910;1275;22751;-53
2024/04/04 12:28:29;;;;;;;;;;;;;;;17.08;66.20;100392.27;106913;1274;23274;-52
2024/04/04 12:30:56;;;;;;;;;;;;;;;17.06;64.78;100399.93;106893;1275;25150;-54
2024/04/04 12:33:22;;;;;;;;;;;;;;;17.03;64.10;100401.24;106881;1274;24230;-54